sensor_id;sensor_type;location;lat;lon;timestamp;pressure;altitude;pressure_sealevel;temperature;humidity
13124;BME280;6627;50.920;12.050;2023-03-01T00:01:17;99087.91;;;10.51;38.49
13124;BME280;6627;50.920;12.050;2023-03-01T00:03:45;99043.84;;;10.45;37.90
13124;BME280;6627;50.920;12.050;2023-03-01T00:06:13;98949.13;;;10.02;38.10
13124;BME280;6627;50.920;12.050;2023-03-01T00:08:42;98890.25;;;9.75;38.76
13124;BME280;6627;50.920;12.050;2023-03-01T00:11:14;98884.16;;;9.65;39.22
13124;BME280;6627;50.920;12.050;2023-03-01T00:13:44;98762.19;;;9.09;40.12
13124;BME280;6627;50.920;12.050;2023-03-01T00:16:15;98852.50;;;9.46;39.79
13124;BME280;6627;50.920;12.050;2023-03-01T00:18:43;98910.72;;;9.81;39.42
13124;BME280;6627;50.920;12.050;2023-03-01T00:21:11;98913.78;;;9.94;38.75
13124;BME280;6627;50.920;12.050;2023-03-01T00:23:39;98993.06;;;10.37;37.92
13124;BME280;6627;50.920;12.050;2023-03-01T00:26:12;98697.56;;;9.13;39.12
13124;BME280;6627;50.920;12.050;2023-03-01T00:28:40;98660.25;;;8.77;40.12
13124;BME280;6627;50.920;12.050;2023-03-01T00:31:10;98708.06;;;8.96;40.21
13124;BME280;6627;50.920;12.050;2023-03-01T00:33:38;98698.50;;;8.84;40.37
13124;BME280;6627;50.920;12.050;2023-03-01T00:36:07;98762.25;;;9.04;40.42
13124;BME280;6627;50.920;12.050;2023-03-01T00:38:35;98743.50;;;9.13;39.89
13124;BME280;6627;50.920;12.050;2023-03-01T00:41:04;98774.41;;;9.26;39.58
13124;BME280;6627;50.920;12.050;2023-03-01T00:43:33;98755.50;;;9.26;39.11
13124;BME280;6627;50.920;12.050;2023-03-01T00:46:03;98580.47;;;8.47;40.09
13124;BME280;6627;50.920;12.050;2023-03-01T00:48:30;98430.94;;;7.73;40.65
13124;BME280;6627;50.920;12.050;2023-03-01T00:51:04;98604.63;;;8.15;41.41
13124;BME280;6627;50.920;12.050;2023-03-01T00:53:31;98634.28;;;8.39;41.01
13124;BME280;6627;50.920;12.050;2023-03-01T00:55:58;98569.09;;;8.07;41.18
13124;BME280;6627;50.920;12.050;2023-03-01T00:58:26;98692.84;;;8.62;40.83
13124;BME280;6627;50.920;12.050;2023-03-01T01:00:55;98758.69;;;8.85;40.11
13124;BME280;6627;50.920;12.050;2023-03-01T01:03:22;98743.53;;;8.89;39.79
13124;BME280;6627;50.920;12.050;2023-03-01T01:05:51;98641.22;;;8.45;40.00
13124;BME280;6627;50.920;12.050;2023-03-01T01:08:19;98570.88;;;7.93;41.55
13124;BME280;6627;50.920;12.050;2023-03-01T01:10:47;98803.50;;;9.10;39.76
13124;BME280;6627;50.920;12.050;2023-03-01T01:13:14;98829.03;;;9.42;38.87
13124;BME280;6627;50.920;12.050;2023-03-01T01:15:41;98582.47;;;8.42;39.68
13124;BME280;6627;50.920;12.050;2023-03-01T01:18:09;98702.88;;;8.80;40.14
13124;BME280;6627;50.920;12.050;2023-03-01T01:20:37;98740.41;;;9.01;39.24
13124;BME280;6627;50.920;12.050;2023-03-01T01:23:06;98433.25;;;7.61;41.16
13124;BME280;6627;50.920;12.050;2023-03-01T01:25:35;98495.06;;;7.52;42.59
13124;BME280;6627;50.920;12.050;2023-03-01T01:28:03;98555.78;;;7.92;41.44
13124;BME280;6627;50.920;12.050;2023-03-01T01:30:30;98437.44;;;7.48;41.85
13124;BME280;6627;50.920;12.050;2023-03-01T01:32:57;98278.63;;;6.52;43.33
13124;BME280;6627;50.920;12.050;2023-03-01T01:35:27;98533.94;;;7.46;42.87
13124;BME280;6627;50.920;12.050;2023-03-01T01:37:54;98458.03;;;7.39;41.97
13124;BME280;6627;50.920;12.050;2023-03-01T01:40:21;98525.66;;;7.61;41.81
13124;BME280;6627;50.920;12.050;2023-03-01T01:42:48;98466.56;;;7.46;41.57
13124;BME280;6627;50.920;12.050;2023-03-01T01:45:29;98262.44;;;6.57;42.65
13124;BME280;6627;50.920;12.050;2023-03-01T01:48:03;98523.72;;;7.43;42.85
13124;BME280;6627;50.920;12.050;2023-03-01T01:50:35;98328.09;;;6.56;43.89
13124;BME280;6627;50.920;12.050;2023-03-01T01:53:12;98594.63;;;7.67;42.32
13124;BME280;6627;50.920;12.050;2023-03-01T01:55:45;98526.34;;;7.48;42.12
13124;BME280;6627;50.920;12.050;2023-03-01T01:58:17;98551.63;;;7.57;42.22
13124;BME280;6627;50.920;12.050;2023-03-01T02:00:47;98406.88;;;6.86;43.10
13124;BME280;6627;50.920;12.050;2023-03-01T02:03:19;98532.41;;;7.34;43.29
13124;BME280;6627;50.920;12.050;2023-03-01T02:05:57;98474.19;;;7.15;43.23
13124;BME280;6627;50.920;12.050;2023-03-01T02:08:29;98499.69;;;7.22;42.93
13124;BME280;6627;50.920;12.050;2023-03-01T02:10:59;98641.78;;;7.94;41.83
13124;BME280;6627;50.920;12.050;2023-03-01T02:13:31;98484.16;;;7.14;42.54
13124;BME280;6627;50.920;12.050;2023-03-01T02:15:59;98467.56;;;7.02;42.62
13124;BME280;6627;50.920;12.050;2023-03-01T02:18:29;98435.31;;;6.97;42.09
13124;BME280;6627;50.920;12.050;2023-03-01T02:21:11;98492.66;;;7.26;42.24
13124;BME280;6627;50.920;12.050;2023-03-01T02:23:42;98409.56;;;6.91;42.30
13124;BME280;6627;50.920;12.050;2023-03-01T02:26:19;98400.66;;;6.61;43.63
13124;BME280;6627;50.920;12.050;2023-03-01T02:28:49;98398.31;;;6.83;42.04
13124;BME280;6627;50.920;12.050;2023-03-01T02:31:19;98523.47;;;7.39;41.74
13124;BME280;6627;50.920;12.050;2023-03-01T02:34:06;98407.91;;;6.90;42.81
13124;BME280;6627;50.920;12.050;2023-03-01T02:36:38;98446.19;;;6.87;42.91
13124;BME280;6627;50.920;12.050;2023-03-01T02:39:09;98474.72;;;6.88;43.41
13124;BME280;6627;50.920;12.050;2023-03-01T02:41:46;98452.63;;;6.91;42.98
13124;BME280;6627;50.920;12.050;2023-03-01T02:44:16;98375.13;;;6.58;42.68
13124;BME280;6627;50.920;12.050;2023-03-01T02:46:46;98439.28;;;6.75;42.94
13124;BME280;6627;50.920;12.050;2023-03-01T02:49:25;98515.66;;;7.14;42.61
13124;BME280;6627;50.920;12.050;2023-03-01T02:52:27;98593.09;;;7.56;41.71
13124;BME280;6627;50.920;12.050;2023-03-01T02:55:03;98421.38;;;6.90;42.01
13124;BME280;6627;50.920;12.050;2023-03-01T02:57:35;98234.66;;;5.79;43.99
13124;BME280;6627;50.920;12.050;2023-03-01T03:00:07;98398.75;;;6.32;44.29
13124;BME280;6627;50.920;12.050;2023-03-01T03:02:36;98723.25;;;7.91;42.00
13124;BME280;6627;50.920;12.050;2023-03-01T03:05:09;98539.44;;;7.36;41.43
13124;BME280;6627;50.920;12.050;2023-03-01T03:07:39;98561.09;;;7.20;42.04
13124;BME280;6627;50.920;12.050;2023-03-01T03:10:11;98471.06;;;7.02;41.70
13124;BME280;6627;50.920;12.050;2023-03-01T03:12:39;98196.53;;;5.77;43.04
13124;BME280;6627;50.920;12.050;2023-03-01T03:15:10;98375.63;;;5.97;44.20
13124;BME280;6627;50.920;12.050;2023-03-01T03:17:41;98545.25;;;6.85;43.15
13124;BME280;6627;50.920;12.050;2023-03-01T03:20:12;98620.81;;;7.32;42.14
13124;BME280;6627;50.920;12.050;2023-03-01T03:22:45;98440.03;;;6.52;42.83
13124;BME280;6627;50.920;12.050;2023-03-01T03:25:12;98478.78;;;6.51;43.70
13124;BME280;6627;50.920;12.050;2023-03-01T03:27:42;98468.72;;;6.62;43.28
13124;BME280;6627;50.920;12.050;2023-03-01T03:30:15;98532.38;;;6.76;43.18
13124;BME280;6627;50.920;12.050;2023-03-01T03:32:46;98523.25;;;6.77;42.40
13124;BME280;6627;50.920;12.050;2023-03-01T03:35:19;98601.63;;;7.05;43.22
13124;BME280;6627;50.920;12.050;2023-03-01T03:37:47;98716.81;;;7.87;41.00
13124;BME280;6627;50.920;12.050;2023-03-01T03:40:35;98609.31;;;7.51;40.96
13124;BME280;6627;50.920;12.050;2023-03-01T03:43:06;98669.47;;;7.75;40.36
13124;BME280;6627;50.920;12.050;2023-03-01T03:45:35;98686.59;;;7.90;40.24
13124;BME280;6627;50.920;12.050;2023-03-01T03:48:05;98594.13;;;7.60;40.44
13124;BME280;6627;50.920;12.050;2023-03-01T03:50:33;98178.81;;;5.76;42.27
13124;BME280;6627;50.920;12.050;2023-03-01T03:53:01;98515.28;;;6.96;42.34
13124;BME280;6627;50.920;12.050;2023-03-01T03:55:28;98474.50;;;7.08;40.74
13124;BME280;6627;50.920;12.050;2023-03-01T03:57:58;98374.88;;;6.55;42.40
13124;BME280;6627;50.920;12.050;2023-03-01T04:00:28;98519.00;;;7.29;40.81
13124;BME280;6627;50.920;12.050;2023-03-01T04:02:57;98164.34;;;5.72;42.33
13124;BME280;6627;50.920;12.050;2023-03-01T04:05:24;98351.19;;;6.28;42.62
13124;BME280;6627;50.920;12.050;2023-03-01T04:07:52;98419.34;;;6.76;41.66
13124;BME280;6627;50.920;12.050;2023-03-01T04:10:29;98315.84;;;6.11;43.40
13124;BME280;6627;50.920;12.050;2023-03-01T04:12:56;98513.94;;;6.94;42.14
13124;BME280;6627;50.920;12.050;2023-03-01T04:15:25;98471.44;;;7.20;40.34
13124;BME280;6627;50.920;12.050;2023-03-01T04:17:55;98530.13;;;7.23;41.18
13124;BME280;6627;50.920;12.050;2023-03-01T04:20:26;98441.84;;;6.91;40.93
13124;BME280;6627;50.920;12.050;2023-03-01T04:22:59;98254.97;;;5.96;41.85
13124;BME280;6627;50.920;12.050;2023-03-01T04:25:38;98296.91;;;5.92;43.13
13124;BME280;6627;50.920;12.050;2023-03-01T04:28:06;98441.91;;;6.80;41.60
13124;BME280;6627;50.920;12.050;2023-03-01T04:30:34;98382.94;;;6.60;41.25
13124;BME280;6627;50.920;12.050;2023-03-01T04:33:04;98254.34;;;6.04;41.78
13124;BME280;6627;50.920;12.050;2023-03-01T04:35:32;98076.47;;;4.86;44.07
13124;BME280;6627;50.920;12.050;2023-03-01T04:38:01;98250.16;;;5.59;43.16
13124;BME280;6627;50.920;12.050;2023-03-01T04:40:28;98434.06;;;6.60;41.55
13124;BME280;6627;50.920;12.050;2023-03-01T04:42:55;98492.47;;;6.89;41.36
13124;BME280;6627;50.920;12.050;2023-03-01T04:45:23;98495.34;;;6.97;40.77
13124;BME280;6627;50.920;12.050;2023-03-01T04:47:50;98477.72;;;7.10;40.12
13124;BME280;6627;50.920;12.050;2023-03-01T04:50:20;98403.06;;;6.92;39.87
13124;BME280;6627;50.920;12.050;2023-03-01T04:52:51;98013.84;;;5.00;42.18
13124;BME280;6627;50.920;12.050;2023-03-01T04:55:18;98038.44;;;4.78;43.20
13124;BME280;6627;50.920;12.050;2023-03-01T04:57:46;98434.69;;;6.47;42.25
13124;BME280;6627;50.920;12.050;2023-03-01T05:00:15;98371.31;;;6.36;42.08
13124;BME280;6627;50.920;12.050;2023-03-01T05:02:49;98481.31;;;7.00;40.56
13124;BME280;6627;50.920;12.050;2023-03-01T05:05:21;98283.22;;;6.22;40.98
13124;BME280;6627;50.920;12.050;2023-03-01T05:07:54;98123.09;;;5.29;42.48
13124;BME280;6627;50.920;12.050;2023-03-01T05:10:23;98317.69;;;5.81;43.45
13124;BME280;6627;50.920;12.050;2023-03-01T05:12:50;98167.38;;;5.31;43.18
13124;BME280;6627;50.920;12.050;2023-03-01T05:15:19;98504.47;;;6.67;42.53
13124;BME280;6627;50.920;12.050;2023-03-01T05:17:48;98449.91;;;6.62;41.73
13124;BME280;6627;50.920;12.050;2023-03-01T05:20:15;98335.09;;;6.23;41.50
13124;BME280;6627;50.920;12.050;2023-03-01T05:22:43;98463.00;;;6.68;41.54
13124;BME280;6627;50.920;12.050;2023-03-01T05:25:11;98365.97;;;6.30;41.58
13124;BME280;6627;50.920;12.050;2023-03-01T05:27:40;98384.25;;;6.34;42.17
13124;BME280;6627;50.920;12.050;2023-03-01T05:30:09;98305.19;;;6.00;41.97
13124;BME280;6627;50.920;12.050;2023-03-01T05:32:42;98191.66;;;5.50;42.26
13124;BME280;6627;50.920;12.050;2023-03-01T05:35:11;98303.91;;;5.93;42.64
13124;BME280;6627;50.920;12.050;2023-03-01T05:37:41;98365.53;;;6.18;42.05
13124;BME280;6627;50.920;12.050;2023-03-01T05:40:14;98415.72;;;6.62;40.80
13124;BME280;6627;50.920;12.050;2023-03-01T05:42:47;98287.78;;;5.88;42.53
13124;BME280;6627;50.920;12.050;2023-03-01T05:45:16;98427.44;;;6.47;41.89
13124;BME280;6627;50.920;12.050;2023-03-01T05:47:46;98424.75;;;6.47;42.14
13124;BME280;6627;50.920;12.050;2023-03-01T05:50:16;98321.00;;;6.07;41.92
13124;BME280;6627;50.920;12.050;2023-03-01T05:52:47;98368.75;;;6.20;42.29
13124;BME280;6627;50.920;12.050;2023-03-01T05:55:16;98379.72;;;6.24;42.17
13124;BME280;6627;50.920;12.050;2023-03-01T05:57:45;98336.28;;;6.12;41.33
13124;BME280;6627;50.920;12.050;2023-03-01T06:00:15;98123.47;;;5.12;42.69
13124;BME280;6627;50.920;12.050;2023-03-01T06:02:43;98254.63;;;5.68;42.04
13124;BME280;6627;50.920;12.050;2023-03-01T06:05:12;98353.25;;;6.07;41.54
13124;BME280;6627;50.920;12.050;2023-03-01T06:07:42;98260.09;;;5.92;40.91
13124;BME280;6627;50.920;12.050;2023-03-01T06:10:12;98381.56;;;6.28;41.31
13124;BME280;6627;50.920;12.050;2023-03-01T06:12:42;98285.09;;;5.88;41.38
13124;BME280;6627;50.920;12.050;2023-03-01T06:15:11;98408.84;;;6.46;41.29
13124;BME280;6627;50.920;12.050;2023-03-01T06:17:42;98339.03;;;6.36;40.27
13124;BME280;6627;50.920;12.050;2023-03-01T06:20:14;98317.88;;;5.95;41.38
13124;BME280;6627;50.920;12.050;2023-03-01T06:22:43;98125.56;;;5.20;42.15
13124;BME280;6627;50.920;12.050;2023-03-01T06:25:11;98302.66;;;5.75;41.98
13124;BME280;6627;50.920;12.050;2023-03-01T06:27:41;98295.84;;;5.88;41.67
13124;BME280;6627;50.920;12.050;2023-03-01T06:30:12;98481.38;;;6.61;41.10
13124;BME280;6627;50.920;12.050;2023-03-01T06:32:40;98225.94;;;5.64;41.12
13124;BME280;6627;50.920;12.050;2023-03-01T06:35:09;98423.94;;;6.42;41.23
13124;BME280;6627;50.920;12.050;2023-03-01T06:37:38;98215.72;;;5.61;41.35
13124;BME280;6627;50.920;12.050;2023-03-01T06:40:08;98226.66;;;5.40;42.92
13124;BME280;6627;50.920;12.050;2023-03-01T06:42:41;98362.84;;;6.18;41.31
13124;BME280;6627;50.920;12.050;2023-03-01T06:45:10;98292.91;;;5.84;41.97
13124;BME280;6627;50.920;12.050;2023-03-01T06:47:38;98472.72;;;6.69;41.15
13124;BME280;6627;50.920;12.050;2023-03-01T06:50:06;98412.09;;;6.48;40.92
13124;BME280;6627;50.920;12.050;2023-03-01T06:52:34;98338.00;;;6.31;40.48
13124;BME280;6627;50.920;12.050;2023-03-01T06:55:02;98522.59;;;6.91;41.20
13124;BME280;6627;50.920;12.050;2023-03-01T06:57:29;98474.81;;;6.77;40.54
13124;BME280;6627;50.920;12.050;2023-03-01T06:59:58;98701.91;;;7.94;39.35
13124;BME280;6627;50.920;12.050;2023-03-01T07:02:25;98573.47;;;7.26;39.95
13124;BME280;6627;50.920;12.050;2023-03-01T07:04:52;98612.00;;;7.51;39.88
13124;BME280;6627;50.920;12.050;2023-03-01T07:07:20;98562.09;;;7.29;40.25
13124;BME280;6627;50.920;12.050;2023-03-01T07:09:49;98681.31;;;7.74;39.94
13124;BME280;6627;50.920;12.050;2023-03-01T07:12:16;98793.06;;;8.79;38.41
13124;BME280;6627;50.920;12.050;2023-03-01T07:14:44;98640.81;;;8.08;38.99
13124;BME280;6627;50.920;12.050;2023-03-01T07:17:12;98532.34;;;7.45;40.54
13124;BME280;6627;50.920;12.050;2023-03-01T07:19:40;98445.84;;;6.93;41.78
13124;BME280;6627;50.920;12.050;2023-03-01T07:22:07;98619.00;;;7.52;41.79
13124;BME280;6627;50.920;12.050;2023-03-01T07:24:35;98517.78;;;7.17;41.33
13124;BME280;6627;50.920;12.050;2023-03-01T07:27:02;98547.50;;;7.06;42.40
13124;BME280;6627;50.920;12.050;2023-03-01T07:29:30;98711.41;;;7.87;41.86
13124;BME280;6627;50.920;12.050;2023-03-01T07:31:57;98595.16;;;7.40;41.96
13124;BME280;6627;50.920;12.050;2023-03-01T07:34:25;98669.53;;;7.70;41.61
13124;BME280;6627;50.920;12.050;2023-03-01T07:36:52;98722.28;;;7.76;42.61
13124;BME280;6627;50.920;12.050;2023-03-01T07:39:19;98708.00;;;8.05;41.67
13124;BME280;6627;50.920;12.050;2023-03-01T07:41:48;98714.06;;;7.92;42.14
13124;BME280;6627;50.920;12.050;2023-03-01T07:44:16;98717.16;;;7.80;42.73
13124;BME280;6627;50.920;12.050;2023-03-01T07:46:44;98659.41;;;7.57;42.83
13124;BME280;6627;50.920;12.050;2023-03-01T07:49:11;98929.69;;;8.80;42.04
13124;BME280;6627;50.920;12.050;2023-03-01T07:51:39;98844.63;;;8.54;41.95
13124;BME280;6627;50.920;12.050;2023-03-01T07:54:08;98867.25;;;8.58;42.23
13124;BME280;6627;50.920;12.050;2023-03-01T07:56:35;98743.34;;;8.03;42.48
13124;BME280;6627;50.920;12.050;2023-03-01T07:59:02;98792.06;;;8.17;42.91
13124;BME280;6627;50.920;12.050;2023-03-01T08:01:29;98665.19;;;7.40;44.55
13124;BME280;6627;50.920;12.050;2023-03-01T08:03:56;98786.16;;;8.10;43.39
13124;BME280;6627;50.920;12.050;2023-03-01T08:06:23;98766.38;;;7.91;44.20
13124;BME280;6627;50.920;12.050;2023-03-01T08:08:52;98768.56;;;7.89;43.85
13124;BME280;6627;50.920;12.050;2023-03-01T08:11:21;98805.03;;;8.15;43.50
13124;BME280;6627;50.920;12.050;2023-03-01T08:13:49;98775.88;;;7.83;44.41
13124;BME280;6627;50.920;12.050;2023-03-01T08:16:16;98955.75;;;8.66;44.33
13124;BME280;6627;50.920;12.050;2023-03-01T08:18:43;98794.31;;;8.05;43.89
13124;BME280;6627;50.920;12.050;2023-03-01T08:21:14;99061.72;;;9.21;43.54
13124;BME280;6627;50.920;12.050;2023-03-01T08:23:43;99032.97;;;9.30;42.79
13124;BME280;6627;50.920;12.050;2023-03-01T08:26:14;99174.88;;;9.91;42.94
13124;BME280;6627;50.920;12.050;2023-03-01T08:28:43;99310.13;;;10.83;41.07
13124;BME280;6627;50.920;12.050;2023-03-01T08:31:15;99039.81;;;9.76;41.74
13124;BME280;6627;50.920;12.050;2023-03-01T08:33:43;99013.94;;;9.65;41.91
13124;BME280;6627;50.920;12.050;2023-03-01T08:36:16;99146.47;;;10.18;41.94
13124;BME280;6627;50.920;12.050;2023-03-01T08:38:44;99017.44;;;9.70;41.87
13124;BME280;6627;50.920;12.050;2023-03-01T08:41:13;99208.28;;;10.82;40.65
13124;BME280;6627;50.920;12.050;2023-03-01T08:43:41;99156.75;;;10.45;41.25
13124;BME280;6627;50.920;12.050;2023-03-01T08:46:08;99220.53;;;10.99;40.36
13124;BME280;6627;50.920;12.050;2023-03-01T08:48:36;99100.41;;;10.47;40.92
13124;BME280;6627;50.920;12.050;2023-03-01T08:51:14;98942.72;;;9.74;41.79
13124;BME280;6627;50.920;12.050;2023-03-01T08:53:42;98986.84;;;9.94;41.59
13124;BME280;6627;50.920;12.050;2023-03-01T08:56:10;99166.16;;;10.71;41.50
13124;BME280;6627;50.920;12.050;2023-03-01T08:58:39;99192.78;;;11.26;39.67
13124;BME280;6627;50.920;12.050;2023-03-01T09:01:10;99002.88;;;10.09;41.97
13124;BME280;6627;50.920;12.050;2023-03-01T09:03:38;98904.44;;;9.86;40.70
13124;BME280;6627;50.920;12.050;2023-03-01T09:06:07;99148.53;;;11.11;39.52
13124;BME280;6627;50.920;12.050;2023-03-01T09:08:35;99108.16;;;11.10;38.92
13124;BME280;6627;50.920;12.050;2023-03-01T09:11:05;99150.69;;;11.47;38.97
13124;BME280;6627;50.920;12.050;2023-03-01T09:13:33;99240.47;;;11.83;38.73
13124;BME280;6627;50.920;12.050;2023-03-01T09:16:05;99067.84;;;11.22;38.45
13124;BME280;6627;50.920;12.050;2023-03-01T09:18:34;99151.75;;;11.65;38.02
13124;BME280;6627;50.920;12.050;2023-03-01T09:21:04;99377.31;;;12.80;37.93
13124;BME280;6627;50.920;12.050;2023-03-01T09:23:33;99297.16;;;12.64;37.25
13124;BME280;6627;50.920;12.050;2023-03-01T09:26:03;99029.53;;;11.43;37.91
13124;BME280;6627;50.920;12.050;2023-03-01T09:28:30;99096.97;;;11.96;37.07
13124;BME280;6627;50.920;12.050;2023-03-01T09:30:58;99218.25;;;12.42;37.47
13124;BME280;6627;50.920;12.050;2023-03-01T09:33:29;99003.03;;;11.67;37.35
13124;BME280;6627;50.920;12.050;2023-03-01T09:35:57;98971.78;;;11.56;37.63
13124;BME280;6627;50.920;12.050;2023-03-01T09:38:24;99170.06;;;12.47;36.87
13124;BME280;6627;50.920;12.050;2023-03-01T09:40:52;99130.34;;;12.10;38.18
13124;BME280;6627;50.920;12.050;2023-03-01T09:43:27;98943.34;;;11.40;37.47
13124;BME280;6627;50.920;12.050;2023-03-01T09:46:03;99076.63;;;12.07;36.88
13124;BME280;6627;50.920;12.050;2023-03-01T09:48:41;99329.09;;;13.55;35.55
13124;BME280;6627;50.920;12.050;2023-03-01T09:51:18;99316.31;;;13.42;35.70
13124;BME280;6627;50.920;12.050;2023-03-01T09:53:46;99111.59;;;12.50;35.98
13124;BME280;6627;50.920;12.050;2023-03-01T09:56:17;99182.81;;;12.74;36.98
13124;BME280;6627;50.920;12.050;2023-03-01T09:58:54;99074.78;;;12.44;36.51
13124;BME280;6627;50.920;12.050;2023-03-01T10:01:30;99053.88;;;12.30;36.81
13124;BME280;6627;50.920;12.050;2023-03-01T10:04:19;99168.75;;;12.72;36.87
13124;BME280;6627;50.920;12.050;2023-03-01T10:07:07;99197.69;;;12.91;36.45
13124;BME280;6627;50.920;12.050;2023-03-01T10:09:43;99315.44;;;13.69;35.41
13124;BME280;6627;50.920;12.050;2023-03-01T10:12:16;99369.88;;;14.05;34.72
13124;BME280;6627;50.920;12.050;2023-03-01T10:14:53;99126.75;;;12.78;36.22
13124;BME280;6627;50.920;12.050;2023-03-01T10:17:31;99326.28;;;13.82;35.34
13124;BME280;6627;50.920;12.050;2023-03-01T10:20:18;99299.59;;;13.93;34.59
13124;BME280;6627;50.920;12.050;2023-03-01T10:22:46;99374.34;;;14.23;34.86
13124;BME280;6627;50.920;12.050;2023-03-01T10:25:36;99123.44;;;13.04;35.89
13124;BME280;6627;50.920;12.050;2023-03-01T10:28:17;99163.38;;;13.17;36.41
13124;BME280;6627;50.920;12.050;2023-03-01T10:30:47;99137.78;;;13.18;36.09
13124;BME280;6627;50.920;12.050;2023-03-01T10:33:20;99222.44;;;13.53;36.12
13124;BME280;6627;50.920;12.050;2023-03-01T10:35:50;99148.69;;;13.18;35.85
13124;BME280;6627;50.920;12.050;2023-03-01T10:38:18;99015.94;;;12.75;35.74
13124;BME280;6627;50.920;12.050;2023-03-01T10:40:53;99179.44;;;13.41;36.04
13124;BME280;6627;50.920;12.050;2023-03-01T10:43:23;99322.97;;;14.08;35.51
13124;BME280;6627;50.920;12.050;2023-03-01T10:45:51;99194.75;;;13.73;34.74
13124;BME280;6627;50.920;12.050;2023-03-01T10:48:20;99071.19;;;13.07;35.60
13124;BME280;6627;50.920;12.050;2023-03-01T10:51:06;99114.59;;;13.34;35.57
13124;BME280;6627;50.920;12.050;2023-03-01T10:53:36;99002.97;;;12.95;35.66
13124;BME280;6627;50.920;12.050;2023-03-01T10:56:08;99087.72;;;13.19;35.86
13124;BME280;6627;50.920;12.050;2023-03-01T10:58:37;99054.22;;;13.10;35.69
13124;BME280;6627;50.920;12.050;2023-03-01T11:01:06;99122.63;;;13.40;35.50
13124;BME280;6627;50.920;12.050;2023-03-01T11:04:11;99185.19;;;13.84;35.08
13124;BME280;6627;50.920;12.050;2023-03-01T11:06:42;99156.19;;;13.57;35.74
13124;BME280;6627;50.920;12.050;2023-03-01T11:09:15;98854.03;;;12.07;36.91
13124;BME280;6627;50.920;12.050;2023-03-01T11:11:43;99217.59;;;13.72;36.08
13124;BME280;6627;50.920;12.050;2023-03-01T11:14:18;99220.19;;;14.22;34.14
13124;BME280;6627;50.920;12.050;2023-03-01T11:16:57;99018.03;;;13.23;34.82
13124;BME280;6627;50.920;12.050;2023-03-01T11:19:24;99091.69;;;13.58;34.68
13124;BME280;6627;50.920;12.050;2023-03-01T11:22:02;99155.16;;;13.98;34.40
13124;BME280;6627;50.920;12.050;2023-03-01T11:24:37;99169.19;;;14.14;34.26
13124;BME280;6627;50.920;12.050;2023-03-01T11:27:21;99470.97;;;15.69;32.87
13124;BME280;6627;50.920;12.050;2023-03-01T11:29:54;99091.84;;;13.93;34.60
13124;BME280;6627;50.920;12.050;2023-03-01T11:32:26;99260.56;;;14.51;35.25
13124;BME280;6627;50.920;12.050;2023-03-01T11:35:01;98905.91;;;13.26;34.12
13124;BME280;6627;50.920;12.050;2023-03-01T11:37:36;99304.16;;;14.82;34.60
13124;BME280;6627;50.920;12.050;2023-03-01T11:40:13;99033.16;;;13.69;34.76
13124;BME280;6627;50.920;12.050;2023-03-01T11:43:11;99198.19;;;14.50;33.85
13124;BME280;6627;50.920;12.050;2023-03-01T11:46:01;99360.66;;;15.30;33.64
13124;BME280;6627;50.920;12.050;2023-03-01T11:48:49;99256.41;;;14.94;34.15
13124;BME280;6627;50.920;12.050;2023-03-01T11:51:24;99178.41;;;14.75;33.40
13124;BME280;6627;50.920;12.050;2023-03-01T11:54:18;99363.19;;;15.75;32.26
13124;BME280;6627;50.920;12.050;2023-03-01T11:56:53;99391.47;;;15.88;32.74
13124;BME280;6627;50.920;12.050;2023-03-01T12:00:11;99203.81;;;15.19;32.60
13124;BME280;6627;50.920;12.050;2023-03-01T12:03:08;99265.16;;;15.48;33.19
13124;BME280;6627;50.920;12.050;2023-03-01T12:06:27;99266.28;;;15.55;33.00
13124;BME280;6627;50.920;12.050;2023-03-01T12:09:21;99190.47;;;15.26;32.81
13124;BME280;6627;50.920;12.050;2023-03-01T12:12:17;99034.16;;;14.48;33.62
13124;BME280;6627;50.920;12.050;2023-03-01T12:15:08;99313.56;;;15.82;33.43
13124;BME280;6627;50.920;12.050;2023-03-01T12:18:19;99126.44;;;15.15;33.22
13124;BME280;6627;50.920;12.050;2023-03-01T12:21:00;98908.97;;;13.99;34.20
13124;BME280;6627;50.920;12.050;2023-03-01T12:23:56;99108.63;;;14.83;34.10
13124;BME280;6627;50.920;12.050;2023-03-01T12:26:32;99005.16;;;14.34;34.23
13124;BME280;6627;50.920;12.050;2023-03-01T12:29:25;99311.78;;;15.86;33.46
13124;BME280;6627;50.920;12.050;2023-03-01T12:32:20;99246.22;;;15.60;33.66
13124;BME280;6627;50.920;12.050;2023-03-01T12:35:20;99200.59;;;15.52;33.03
13124;BME280;6627;50.920;12.050;2023-03-01T12:38:02;99188.25;;;15.46;32.73
13124;BME280;6627;50.920;12.050;2023-03-01T12:41:00;99312.59;;;16.04;32.87
13124;BME280;6627;50.920;12.050;2023-03-01T12:43:44;99209.16;;;15.68;32.71
13124;BME280;6627;50.920;12.050;2023-03-01T12:46:30;99197.72;;;15.74;32.50
13124;BME280;6627;50.920;12.050;2023-03-01T12:49:10;98974.06;;;14.87;32.76
13124;BME280;6627;50.920;12.050;2023-03-01T12:51:44;99445.81;;;16.94;31.94
13124;BME280;6627;50.920;12.050;2023-03-01T12:54:27;99035.25;;;15.33;32.51
13124;BME280;6627;50.920;12.050;2023-03-01T12:57:02;99083.38;;;15.47;32.69
13124;BME280;6627;50.920;12.050;2023-03-01T12:59:42;99134.03;;;16.00;31.34
13124;BME280;6627;50.920;12.050;2023-03-01T13:02:22;99012.81;;;15.19;32.91
13124;BME280;6627;50.920;12.050;2023-03-01T13:05:16;99202.09;;;16.22;31.81
13124;BME280;6627;50.920;12.050;2023-03-01T13:07:55;99051.78;;;15.46;32.86
13124;BME280;6627;50.920;12.050;2023-03-01T13:10:36;98858.47;;;14.54;33.38
13124;BME280;6627;50.920;12.050;2023-03-01T13:13:18;99102.28;;;15.78;31.91
13124;BME280;6627;50.920;12.050;2023-03-01T13:15:48;99061.16;;;15.74;31.10
13124;BME280;6627;50.920;12.050;2023-03-01T13:18:32;98833.53;;;14.81;31.42
13124;BME280;6627;50.920;12.050;2023-03-01T13:21:02;98687.25;;;14.09;32.31
13124;BME280;6627;50.920;12.050;2023-03-01T13:23:35;98969.44;;;15.26;31.70
13124;BME280;6627;50.920;12.050;2023-03-01T13:26:13;99011.06;;;15.70;30.85
13124;BME280;6627;50.920;12.050;2023-03-01T13:28:59;99090.84;;;15.84;31.59
13124;BME280;6627;50.920;12.050;2023-03-01T13:32:01;99172.34;;;16.59;30.24
13124;BME280;6627;50.920;12.050;2023-03-01T13:34:48;98997.84;;;16.10;29.91
13124;BME280;6627;50.920;12.050;2023-03-01T13:37:26;98651.81;;;14.56;30.82